Calvert City, KY

6:42 AM CDT on August 20, 2014 (GMT -0500)
Metropolis | Change Station
CLOSE
Current Station
Airport
Location: Metropolis,
Elevation: 384 ft
Nearby Weather Stations
Active Advisory: Heat Advisory

Elev 384 ft 37.18 °N, 88.75 °W | Updated 14 hours ago

Thunderstorm
Thunderstorm
73 °F
Feels Like 73 °F
N
5
Wind Variable Wind from SW
Gusts mph

Today
High -- | Low -- °F
--% Chance of Precip.
Yesterday
High -- | Low -- °F
Precip. -- in
6:14 AM 7:38 PM
Waning Crescent, 22% visible
Pressure 29.82 in
Visibility 10.0 miles
Clouds Clear
Dew Point 72 °F
Humidity 89%
Rainfall 0.01 in
Snow Depth Not available.
UV 5 out of 12
Pollen 10.20 out of 12
Air Quality Not available.
Flu Activity Not available.
METAR KM30 192115Z AUTO 26007KT 10SM VCTS CLR 30/20 A2982 RMK AO2 LTG DSNT ALQS T03000203

More Conditions Fewer Conditions

Pressure 29.82 in
Visibility 10.0 miles
Clouds Clear
Dew Point 72 °F
Humidity 89%
Rainfall 0.01 in
Snow Depth Not available.
UV 5 out of 12
Pollen 10.20 out of 12
Air Quality Not available.
Flu Activity Not available.
METAR KM30 192115Z AUTO 26007KT 10SM VCTS CLR 30/20 A2982 RMK AO2 LTG DSNT ALQS T03000203

More Conditions Fewer Conditions

10-Day Weather Forecast

Almanac

Astronomy

Aug. 20, 2014 Rise Set
Actual Time 6:14 AM CDT 7:38 PM CDT
Civil Twilight 5:47 AM CDT 8:05 PM CDT
Nautical Twilight 5:14 AM CDT 8:38 PM CDT
Astronomical Twilight 4:39 AM CDT 9:12 PM CDT
Moon 1:56 AM CDT 4:20 PM CDT
Length of Visible Light 14h 18m
Length of Day
13h 24m
Tomorrow will be 2m 8s shorter.
Waning Crescent, 22% of the Moon is Illuminated
Today
Waning Crescent
Aug 25
New
Sep 2
First Quarter
Sep 8
Full
Sep 15
Last Quarter

Today's Extremes

State Highs State Lows

Community

WunderPhotos

Upload Photos

1,745,611 photos uploaded!

Nearby

Snow Depth

Station Depth Elevation
No new snow has been reported.

Earthquake Activity

City Distance Mag. Time & Date
No recent earthquake activity has been reported nearby.
Minimum magnitude displayed is 2.5.

Coastal Water Temperatures

Place Temperature
No Stations Reporting

Nearby Weather Stations